createdAt,value
2023-04-03T00:01:12.229Z,0.00
2023-04-03T00:03:38.899Z,0.00
2023-04-03T00:06:07.836Z,0.75
2023-04-03T00:08:34.328Z,1.00
2023-04-03T00:11:00.880Z,1.00
2023-04-03T00:13:27.429Z,0.20
2023-04-03T00:15:54.145Z,0.25
2023-04-03T00:18:20.852Z,0.60
2023-04-03T00:20:47.666Z,1.00
2023-04-03T00:23:14.105Z,1.00
2023-04-03T00:25:40.798Z,0.00
2023-04-03T00:28:07.282Z,1.00
2023-04-03T00:30:34.107Z,1.00
2023-04-03T00:33:01.784Z,0.00
2023-04-03T00:35:28.363Z,1.00
2023-04-03T00:37:56.222Z,1.00
2023-04-03T00:40:23.888Z,1.00
2023-04-03T00:42:53.079Z,0.00
2023-04-03T00:45:19.554Z,1.00
2023-04-03T00:47:46.328Z,0.00
2023-04-03T00:50:12.987Z,0.00
2023-04-03T00:52:40.245Z,0.50
2023-04-03T00:55:09.077Z,1.00
2023-04-03T00:57:36.315Z,0.50
2023-04-03T01:00:07.273Z,0.50
2023-04-03T01:02:34.089Z,1.00
2023-04-03T01:05:00.601Z,1.00
2023-04-03T01:07:30.217Z,0.75
2023-04-03T01:10:00.880Z,0.00
2023-04-03T01:12:29.288Z,0.00
2023-04-03T01:14:57.315Z,1.00
2023-04-03T01:17:40.765Z,2.00
2023-04-03T01:20:07.991Z,0.40
2023-04-03T01:22:44.906Z,1.00
2023-04-03T01:25:11.415Z,1.00
2023-04-03T01:27:40.593Z,0.50
2023-04-03T01:30:07.935Z,1.00
2023-04-03T01:32:34.670Z,1.60
2023-04-03T01:35:01.155Z,1.80
2023-04-03T01:37:27.654Z,1.20
2023-04-03T01:39:54.191Z,0.80
2023-04-03T01:42:20.691Z,0.00
2023-04-03T01:44:47.277Z,1.40
2023-04-03T01:47:13.799Z,2.00
2023-04-03T01:49:40.441Z,2.00
2023-04-03T01:52:06.989Z,2.00
2023-04-03T01:54:33.953Z,1.00
2023-04-03T01:57:00.466Z,1.60
2023-04-03T01:59:27.080Z,2.00
2023-04-03T02:01:53.501Z,2.00
2023-04-03T02:04:20.081Z,1.00
2023-04-03T02:06:46.657Z,1.00
2023-04-03T02:09:13.451Z,1.00
2023-04-03T02:11:39.954Z,1.25
2023-04-03T02:14:07.779Z,0.00
2023-04-03T02:16:34.303Z,0.20
2023-04-03T02:19:00.820Z,1.00
2023-04-03T02:21:27.376Z,2.00
2023-04-03T02:23:54.055Z,1.20
2023-04-03T02:26:20.954Z,1.00
2023-04-03T02:28:47.654Z,1.00
2023-04-03T02:31:14.464Z,1.00
2023-04-03T02:33:41.074Z,0.60
2023-04-03T02:36:08.789Z,1.00
2023-04-03T02:38:36.361Z,2.00
2023-04-03T02:41:13.000Z,1.00
2023-04-03T02:43:39.844Z,1.00
2023-04-03T02:46:06.632Z,1.25
2023-04-03T02:48:33.221Z,1.00
2023-04-03T02:50:59.791Z,3.00
2023-04-03T02:53:26.300Z,0.00
2023-04-03T02:55:52.873Z,1.00
2023-04-03T02:58:19.357Z,1.40
2023-04-03T03:00:46.026Z,2.00
2023-04-03T03:03:12.621Z,1.00
2023-04-03T03:05:39.135Z,0.50
2023-04-03T03:08:05.703Z,1.00
2023-04-03T03:10:32.352Z,1.00
2023-04-03T03:12:58.797Z,0.75
2023-04-03T03:15:25.419Z,0.00
2023-04-03T03:17:52.071Z,0.40
2023-04-03T03:20:18.715Z,0.00
2023-04-03T03:22:45.288Z,1.00
2023-04-03T03:25:11.929Z,1.00
2023-04-03T03:27:38.506Z,1.00
2023-04-03T03:30:05.396Z,0.00
2023-04-03T03:32:32.037Z,0.00
2023-04-03T03:34:58.603Z,1.00
2023-04-03T03:37:25.065Z,0.75
2023-04-03T03:39:51.564Z,0.00
2023-04-03T03:42:18.088Z,0.00
2023-04-03T03:44:44.635Z,0.00
2023-04-03T03:47:11.833Z,1.00
2023-04-03T03:49:38.295Z,0.20
2023-04-03T03:52:04.885Z,0.80
2023-04-03T03:54:31.413Z,1.00
2023-04-03T03:56:58.020Z,2.00
2023-04-03T03:59:24.554Z,1.00
2023-04-03T04:01:51.265Z,0.00
2023-04-03T04:04:17.762Z,1.00
2023-04-03T04:06:44.313Z,0.00
2023-04-03T04:09:10.775Z,0.80
2023-04-03T04:11:37.321Z,1.80
2023-04-03T04:14:03.814Z,0.80
2023-04-03T04:16:30.550Z,1.00
2023-04-03T04:18:57.091Z,1.00
2023-04-03T04:21:23.905Z,1.00
2023-04-03T04:23:50.374Z,1.00
2023-04-03T04:26:16.846Z,2.00
2023-04-03T04:28:43.338Z,1.00
2023-04-03T04:31:09.936Z,1.00
2023-04-03T04:33:36.875Z,1.00
2023-04-03T04:36:03.672Z,1.00
2023-04-03T04:38:30.528Z,2.00
2023-04-03T04:40:57.054Z,1.00
2023-04-03T04:43:26.088Z,1.75
2023-04-03T04:46:02.880Z,0.00
2023-04-03T04:48:32.482Z,1.20
2023-04-03T04:50:59.272Z,2.00
2023-04-03T04:53:25.876Z,1.00
2023-04-03T04:55:53.062Z,1.00
2023-04-03T04:58:19.838Z,1.00
2023-04-03T05:00:46.408Z,2.00
2023-04-03T05:03:12.953Z,2.00
2023-04-03T05:05:39.825Z,1.50
2023-04-03T05:08:06.977Z,1.00
2023-04-03T05:10:33.452Z,3.00
2023-04-03T05:12:59.911Z,1.80
2023-04-03T05:15:26.405Z,2.20
2023-04-03T05:17:53.013Z,1.00
2023-04-03T05:20:19.583Z,2.00
2023-04-03T05:22:46.333Z,3.00
2023-04-03T05:25:12.802Z,2.00
2023-04-03T05:27:39.373Z,3.00
2023-04-03T05:30:08.954Z,2.60
2023-04-03T05:32:35.555Z,1.20
2023-04-03T05:35:02.205Z,2.00
2023-04-03T05:37:28.813Z,2.00
2023-04-03T05:39:55.603Z,3.00
2023-04-03T05:42:22.242Z,3.00
2023-04-03T05:44:49.924Z,1.00
2023-04-03T05:47:16.899Z,1.00
2023-04-03T05:49:43.532Z,3.00
2023-04-03T05:52:22.813Z,2.00
2023-04-03T05:54:49.586Z,2.75
2023-04-03T05:57:17.541Z,2.20
2023-04-03T05:59:45.545Z,0.00
2023-04-03T06:02:13.414Z,3.00
2023-04-03T06:04:40.626Z,2.20
2023-04-03T06:07:07.812Z,2.00
2023-04-03T06:09:34.660Z,2.00
2023-04-03T06:12:01.203Z,1.00
2023-04-03T06:14:27.841Z,0.40
2023-04-03T06:16:55.261Z,2.00
2023-04-03T06:19:21.907Z,1.25
2023-04-03T06:21:48.568Z,1.00
2023-04-03T06:24:16.295Z,1.00
2023-04-03T06:26:43.194Z,2.00
2023-04-03T06:29:09.948Z,0.25
2023-04-03T06:31:37.744Z,1.40
2023-04-03T06:34:05.248Z,1.60
2023-04-03T06:36:32.982Z,0.25
2023-04-03T06:38:59.447Z,0.60
2023-04-03T06:41:27.259Z,2.80
2023-04-03T06:43:53.764Z,1.00
2023-04-03T06:46:22.266Z,2.00
2023-04-03T06:48:49.172Z,0.00
2023-04-03T06:51:29.388Z,1.00
2023-04-03T06:53:56.652Z,1.00
2023-04-03T06:56:23.788Z,2.00
2023-04-03T06:58:51.231Z,1.20
2023-04-03T07:01:20.277Z,0.60
2023-04-03T07:03:47.694Z,1.00
2023-04-03T07:06:14.261Z,1.00
2023-04-03T07:08:41.340Z,3.00
2023-04-03T07:11:10.997Z,1.25
2023-04-03T07:13:40.046Z,2.00
2023-04-03T07:16:07.377Z,22.00
2023-04-03T07:18:34.522Z,6.00
2023-04-03T07:21:01.878Z,7.60
2023-04-03T07:23:28.502Z,1.40
2023-04-03T07:25:55.201Z,0.40
2023-04-03T07:28:23.670Z,0.00
2023-04-03T07:30:51.784Z,1.00
2023-04-03T07:33:19.349Z,1.00
2023-04-03T07:35:46.235Z,0.00
2023-04-03T07:38:13.219Z,0.00
2023-04-03T07:40:39.872Z,0.00
2023-04-03T07:43:09.129Z,1.60
2023-04-03T07:45:37.074Z,1.50
2023-04-03T07:48:04.027Z,2.00
2023-04-03T07:50:32.204Z,1.00
2023-04-03T07:52:58.926Z,0.00
2023-04-03T07:55:26.285Z,0.25
2023-04-03T07:57:52.773Z,0.80
2023-04-03T08:00:20.681Z,1.00
2023-04-03T08:02:52.589Z,1.00
2023-04-03T08:05:20.853Z,0.40
2023-04-03T08:07:47.660Z,1.00
2023-04-03T08:10:15.337Z,2.00
2023-04-03T08:12:42.028Z,0.50
2023-04-03T08:15:09.341Z,1.00
2023-04-03T08:17:36.126Z,1.00
2023-04-03T08:20:03.878Z,1.60
2023-04-03T08:22:30.683Z,1.50
2023-04-03T08:24:59.281Z,0.00
2023-04-03T08:27:27.910Z,0.00
2023-04-03T08:29:54.337Z,0.50
2023-04-03T08:32:20.839Z,0.00
2023-04-03T08:34:47.421Z,2.00
2023-04-03T08:37:13.905Z,0.00
2023-04-03T08:39:40.471Z,0.50
2023-04-03T08:42:16.572Z,0.00
2023-04-03T08:44:46.347Z,1.80
2023-04-03T08:47:30.799Z,0.50
2023-04-03T08:50:00.027Z,0.40
2023-04-03T08:52:46.410Z,0.00
2023-04-03T08:55:22.014Z,1.00
2023-04-03T08:57:50.009Z,0.00
2023-04-03T09:00:21.931Z,0.00
2023-04-03T09:02:49.513Z,0.00
2023-04-03T09:05:18.216Z,0.00
2023-04-03T09:07:48.640Z,0.60
2023-04-03T09:10:17.328Z,0.00
2023-04-03T09:12:45.998Z,0.00
2023-04-03T09:15:27.748Z,0.00
2023-04-03T09:18:05.564Z,1.00
2023-04-03T09:20:41.626Z,0.00
2023-04-03T09:23:26.643Z,0.00
2023-04-03T09:25:57.800Z,0.00
2023-04-03T09:28:24.471Z,1.00
2023-04-03T09:30:51.061Z,0.00
2023-04-03T09:33:18.661Z,1.00
2023-04-03T09:35:48.688Z,1.00
2023-04-03T09:38:17.650Z,0.00
2023-04-03T09:40:44.205Z,1.00
2023-04-03T09:43:48.988Z,0.00
2023-04-03T09:46:32.318Z,1.00
2023-04-03T09:49:08.825Z,0.40
2023-04-03T09:51:36.362Z,0.00
2023-04-03T09:54:22.852Z,0.00
2023-04-03T09:56:52.900Z,1.00
2023-04-03T09:59:20.835Z,1.00
2023-04-03T10:02:22.389Z,1.00
2023-04-03T10:04:58.661Z,1.00
2023-04-03T10:07:37.550Z,1.00
2023-04-03T10:10:18.427Z,0.60
2023-04-03T10:12:45.144Z,1.00
2023-04-03T10:15:15.206Z,1.00
2023-04-03T10:17:44.848Z,1.00
2023-04-03T10:20:14.807Z,1.00
2023-04-03T10:22:44.087Z,0.00
2023-04-03T10:25:16.098Z,0.00
2023-04-03T10:27:45.425Z,0.50
2023-04-03T10:30:27.325Z,0.75
2023-04-03T10:32:56.691Z,0.00
2023-04-03T10:35:23.145Z,0.00
2023-04-03T10:37:49.617Z,0.00
2023-04-03T10:40:34.679Z,0.00
2023-04-03T10:43:16.647Z,0.00
2023-04-03T10:46:03.178Z,1.00
2023-04-03T10:48:34.848Z,1.00
2023-04-03T10:51:01.468Z,0.60
2023-04-03T10:53:33.685Z,1.00
2023-04-03T10:56:08.439Z,0.25
2023-04-03T10:58:41.435Z,1.00
2023-04-03T11:01:14.513Z,0.00
2023-04-03T11:03:46.625Z,1.00
2023-04-03T11:06:15.748Z,0.60
2023-04-03T11:08:47.470Z,0.60
2023-04-03T11:11:17.213Z,1.00
2023-04-03T11:13:52.105Z,0.00
2023-04-03T11:16:26.332Z,1.00
2023-04-03T11:18:59.054Z,1.00
2023-04-03T11:21:30.764Z,0.00
2023-04-03T11:23:59.378Z,0.00
2023-04-03T11:26:29.430Z,0.50
2023-04-03T11:29:04.770Z,1.33
2023-04-03T11:31:37.099Z,1.00
2023-04-03T11:34:16.605Z,0.60
2023-04-03T11:36:51.349Z,1.00
2023-04-03T11:39:21.397Z,1.00
2023-04-03T11:41:48.264Z,1.00
2023-04-03T11:44:35.157Z,0.80
2023-04-03T11:47:02.533Z,1.00
2023-04-03T11:49:47.392Z,0.80
2023-04-03T11:52:14.412Z,1.00
2023-04-03T11:54:46.229Z,2.00
2023-04-03T11:57:31.453Z,2.00
2023-04-03T11:59:58.344Z,2.00
2023-04-03T12:02:51.072Z,1.00
2023-04-03T12:05:28.973Z,3.00
2023-04-03T12:08:14.192Z,0.80
2023-04-03T12:10:40.670Z,2.00
2023-04-03T12:13:17.047Z,2.00
2023-04-03T12:15:52.345Z,1.40
2023-04-03T12:18:40.281Z,2.00
2023-04-03T12:21:06.744Z,1.00
2023-04-03T12:23:53.485Z,2.00
2023-04-03T12:26:22.851Z,3.00
2023-04-03T12:28:51.706Z,3.00
2023-04-03T12:31:18.908Z,2.00
2023-04-03T12:33:45.380Z,2.00
2023-04-03T12:36:20.241Z,1.40
2023-04-03T12:38:59.812Z,1.00
2023-04-03T12:41:35.133Z,3.50
2023-04-03T12:44:10.709Z,3.00
2023-04-03T12:46:40.971Z,3.00
2023-04-03T12:49:27.712Z,4.80
2023-04-03T12:51:54.339Z,1.80
2023-04-03T12:54:24.408Z,2.80
2023-04-03T12:56:51.601Z,2.00
2023-04-03T12:59:22.524Z,2.00
2023-04-03T13:02:02.020Z,2.40
2023-04-03T13:04:29.922Z,1.00
2023-04-03T13:06:56.500Z,3.00
2023-04-03T13:09:23.073Z,2.00
2023-04-03T13:11:51.194Z,3.00
2023-04-03T13:14:22.507Z,2.00
2023-04-03T13:16:55.700Z,2.60
2023-04-03T13:19:23.878Z,2.50
2023-04-03T13:21:52.768Z,3.00
2023-04-03T13:24:19.547Z,2.60
2023-04-03T13:26:46.224Z,3.00
2023-04-03T13:29:30.011Z,2.00
2023-04-03T13:31:59.050Z,3.00
2023-04-03T13:34:27.587Z,2.00
2023-04-03T13:36:54.289Z,3.00
2023-04-03T13:39:26.460Z,2.00
2023-04-03T13:41:55.487Z,3.00
2023-04-03T13:44:21.921Z,3.00
2023-04-03T13:46:52.272Z,2.00
2023-04-03T13:49:20.668Z,3.00
2023-04-03T13:51:56.967Z,3.25
2023-04-03T13:54:35.735Z,2.50
2023-04-03T13:57:02.738Z,4.00
2023-04-03T13:59:33.162Z,3.50
2023-04-03T14:01:59.575Z,4.00
2023-04-03T14:04:28.750Z,3.80
2023-04-03T14:06:55.555Z,3.00
2023-04-03T14:09:23.603Z,3.00
2023-04-03T14:11:51.742Z,4.20
2023-04-03T14:14:23.219Z,4.75
2023-04-03T14:16:53.618Z,3.80
2023-04-03T14:19:23.546Z,4.00
2023-04-03T14:21:51.775Z,3.00
2023-04-03T14:24:18.240Z,3.60
2023-04-03T14:26:45.089Z,4.00
2023-04-03T14:29:12.439Z,2.60
2023-04-03T14:31:39.286Z,3.40
2023-04-03T14:34:05.878Z,4.00
2023-04-03T14:36:33.992Z,4.50
2023-04-03T14:39:01.811Z,5.00
2023-04-03T14:41:28.834Z,4.75
2023-04-03T14:43:55.451Z,3.25
2023-04-03T14:46:55.068Z,2.60
2023-04-03T14:49:24.782Z,4.00
2023-04-03T14:51:51.566Z,3.40
2023-04-03T14:54:23.663Z,6.25
2023-04-03T14:56:50.317Z,3.00
2023-04-03T14:59:18.607Z,4.00
2023-04-03T15:01:45.351Z,9.50
2023-04-03T15:04:13.248Z,4.40
2023-04-03T15:06:39.932Z,3.00
2023-04-03T15:09:07.097Z,5.00
2023-04-03T15:11:33.598Z,4.00
2023-04-03T15:14:00.120Z,4.00
2023-04-03T15:16:26.885Z,5.00
2023-04-03T15:18:53.420Z,3.20
2023-04-03T15:21:19.894Z,3.50
2023-04-03T15:23:46.470Z,4.00
2023-04-03T15:26:13.089Z,4.00
2023-04-03T15:28:43.048Z,4.50
2023-04-03T15:31:09.855Z,4.00
2023-04-03T15:33:36.916Z,7.60
2023-04-03T15:36:07.615Z,6.00
2023-04-03T15:38:34.467Z,4.00
2023-04-03T15:41:01.042Z,4.00
2023-04-03T15:43:27.676Z,5.00
2023-04-03T15:45:57.383Z,4.00
2023-04-03T15:48:23.871Z,4.60
2023-04-03T15:50:50.370Z,5.00
2023-04-03T15:53:16.833Z,3.00
2023-04-03T15:55:43.398Z,4.00
2023-04-03T15:58:10.024Z,4.00
2023-04-03T16:00:36.681Z,4.00
2023-04-03T16:03:06.863Z,3.60
2023-04-03T16:05:34.003Z,8.00
2023-04-03T16:08:01.279Z,4.00
2023-04-03T16:10:28.407Z,3.00
2023-04-03T16:12:55.395Z,4.00
2023-04-03T16:15:22.285Z,2.60
2023-04-03T16:17:49.573Z,4.00
2023-04-03T16:20:16.449Z,6.00
2023-04-03T16:22:43.725Z,3.60
2023-04-03T16:25:11.305Z,5.00
2023-04-03T16:27:39.137Z,3.50
2023-04-03T16:30:06.706Z,3.40
2023-04-03T16:32:33.526Z,4.00
2023-04-03T16:37:31.049Z,3.00
2023-04-03T16:39:59.271Z,3.40
2023-04-03T16:42:26.228Z,4.00
2023-04-03T16:44:52.686Z,4.20
2023-04-03T16:47:20.728Z,3.40
2023-04-03T16:49:48.535Z,4.00
2023-04-03T16:52:20.554Z,2.60
2023-04-03T16:54:47.544Z,4.00
2023-04-03T16:57:15.329Z,4.00
2023-04-03T16:59:41.809Z,4.00
2023-04-03T17:02:08.952Z,4.00
2023-04-03T17:04:35.590Z,3.25
2023-04-03T17:07:06.988Z,3.00
2023-04-03T17:09:34.365Z,4.00
2023-04-03T17:12:01.033Z,3.00
2023-04-03T17:14:27.548Z,4.00
2023-04-03T17:16:54.122Z,5.00
2023-04-03T17:19:20.880Z,4.00
2023-04-03T17:21:47.694Z,3.00
2023-04-03T17:24:15.047Z,3.50
2023-04-03T17:26:42.295Z,4.00
2023-04-03T17:29:08.813Z,5.60
2023-04-03T17:31:35.467Z,5.60
2023-04-03T17:34:02.065Z,4.00
2023-04-03T17:36:32.225Z,4.40
2023-04-03T17:38:58.859Z,5.25
2023-04-03T17:41:28.644Z,6.50
2023-04-03T17:43:57.118Z,5.00
2023-04-03T17:46:24.558Z,6.00
2023-04-03T17:48:51.650Z,6.00
2023-04-03T17:51:23.276Z,5.60
2023-04-03T17:53:49.977Z,5.00
2023-04-03T17:56:22.919Z,5.00
2023-04-03T17:58:50.562Z,5.75
2023-04-03T18:01:21.179Z,5.00
2023-04-03T18:03:48.876Z,5.00
2023-04-03T18:06:17.460Z,7.80
2023-04-03T18:08:48.545Z,5.00
2023-04-03T18:11:16.000Z,6.75
2023-04-03T18:13:43.028Z,4.40
2023-04-03T18:16:10.830Z,4.50
2023-04-03T18:18:37.683Z,6.00
2023-04-03T18:21:04.642Z,7.00
2023-04-03T18:23:32.666Z,7.00
2023-04-03T18:26:00.034Z,4.60
2023-04-03T18:28:27.113Z,5.00
2023-04-03T18:30:53.594Z,5.25
2023-04-03T18:33:20.294Z,9.00
2023-04-03T18:35:46.791Z,7.00
2023-04-03T18:38:14.361Z,7.00
2023-04-03T18:40:42.784Z,6.75
2023-04-03T18:43:09.546Z,5.00
2023-04-03T18:45:36.353Z,7.00
2023-04-03T18:48:03.305Z,7.00
2023-04-03T18:50:30.064Z,6.00
2023-04-03T18:52:56.644Z,6.60
2023-04-03T18:55:23.409Z,7.00
2023-04-03T18:57:50.116Z,9.00
2023-04-03T19:00:17.928Z,7.40
2023-04-03T19:02:45.153Z,9.40
2023-04-03T19:05:14.062Z,6.50
2023-04-03T19:07:44.666Z,6.50
2023-04-03T19:10:17.276Z,7.00
2023-04-03T19:12:45.314Z,6.40
2023-04-03T19:15:13.071Z,7.40
2023-04-03T19:17:39.718Z,6.00
2023-04-03T19:20:06.974Z,6.00
2023-04-03T19:22:33.545Z,7.00
2023-04-03T19:25:00.600Z,10.00
2023-04-03T19:27:27.119Z,8.00
2023-04-03T19:29:53.668Z,8.40
2023-04-03T19:32:20.200Z,4.00
2023-04-03T19:34:46.939Z,6.75
2023-04-03T19:37:14.975Z,7.00
2023-04-03T19:39:41.422Z,6.60
2023-04-03T19:42:08.142Z,8.00
2023-04-03T19:44:35.339Z,9.00
2023-04-03T19:47:02.754Z,4.00
2023-04-03T19:49:29.357Z,9.20
2023-04-03T19:51:56.286Z,7.00
2023-04-03T19:54:23.055Z,6.50
2023-04-03T19:56:50.001Z,8.00
2023-04-03T19:59:17.469Z,9.40
2023-04-03T20:01:46.319Z,7.00
2023-04-03T20:04:12.956Z,9.00
2023-04-03T20:06:39.497Z,8.00
2023-04-03T20:09:06.075Z,7.00
2023-04-03T20:11:34.019Z,8.40
2023-04-03T20:14:00.521Z,7.40
2023-04-03T20:16:28.171Z,8.00
2023-04-03T20:18:56.303Z,7.00
2023-04-03T20:21:33.218Z,8.00
2023-04-03T20:24:00.598Z,7.40
2023-04-03T20:26:28.837Z,7.75
2023-04-03T20:28:56.466Z,6.80
2023-04-03T20:31:24.127Z,8.60
2023-04-03T20:33:50.725Z,6.40
2023-04-03T20:36:18.156Z,8.80
2023-04-03T20:38:44.696Z,9.00
2023-04-03T20:41:11.172Z,5.00
2023-04-03T20:43:39.939Z,7.00
2023-04-03T20:46:08.297Z,6.40
2023-04-03T20:48:35.573Z,8.00
2023-04-03T20:51:12.474Z,9.00
2023-04-03T20:53:39.597Z,9.00
2023-04-03T20:56:09.109Z,9.00
2023-04-03T20:58:38.453Z,7.50
2023-04-03T21:01:13.154Z,6.80
2023-04-03T21:03:39.880Z,8.00
2023-04-03T21:06:25.344Z,8.00
2023-04-03T21:09:10.654Z,7.80
2023-04-03T21:11:56.281Z,10.40
2023-04-03T21:14:42.484Z,6.60
2023-04-03T21:17:09.006Z,7.50
2023-04-03T21:19:40.221Z,9.00
2023-04-03T21:22:06.827Z,8.00
2023-04-03T21:24:33.267Z,7.50
2023-04-03T21:26:59.781Z,10.00
2023-04-03T21:29:26.339Z,9.60
2023-04-03T21:31:57.071Z,8.25
2023-04-03T21:34:27.744Z,11.00
2023-04-03T21:36:54.941Z,10.40
2023-04-03T21:39:22.193Z,9.80
2023-04-03T21:41:52.499Z,7.00
2023-04-03T21:44:19.596Z,10.00
2023-04-03T21:46:53.736Z,9.25
2023-04-03T21:49:24.401Z,8.75
2023-04-03T21:51:52.552Z,10.00
2023-04-03T21:54:19.593Z,12.40
2023-04-03T21:56:48.118Z,10.25
2023-04-03T21:59:14.903Z,10.00
2023-04-03T22:01:41.827Z,10.00
2023-04-03T22:04:08.481Z,8.60
2023-04-03T22:06:35.034Z,10.75
2023-04-03T22:09:02.355Z,10.00
2023-04-03T22:11:29.211Z,11.00
2023-04-03T22:13:56.168Z,11.00
2023-04-03T22:16:23.661Z,10.60
2023-04-03T22:18:51.617Z,11.20
2023-04-03T22:21:18.313Z,8.50
2023-04-03T22:23:44.903Z,11.50
2023-04-03T22:26:11.928Z,10.00
2023-04-03T22:28:39.659Z,10.75
2023-04-03T22:31:10.981Z,10.60
2023-04-03T22:33:38.013Z,9.80
2023-04-03T22:36:08.572Z,9.50
2023-04-03T22:38:35.514Z,10.00
2023-04-03T22:41:02.782Z,10.00
2023-04-03T22:43:29.935Z,8.75
2023-04-03T22:45:57.168Z,9.25
2023-04-03T22:48:24.312Z,7.67
2023-04-03T22:50:51.686Z,8.00
2023-04-03T22:53:18.731Z,10.00
2023-04-03T22:55:53.363Z,12.00
2023-04-03T22:58:23.473Z,15.33
2023-04-03T23:00:49.946Z,7.75
2023-04-03T23:03:16.496Z,10.00
2023-04-03T23:05:43.009Z,10.50
2023-04-03T23:08:09.485Z,10.00
2023-04-03T23:10:36.320Z,10.25
2023-04-03T23:13:02.830Z,10.00
2023-04-03T23:15:29.366Z,9.00
2023-04-03T23:17:56.393Z,8.25
2023-04-03T23:20:23.094Z,10.00
2023-04-03T23:22:49.563Z,11.75
2023-04-03T23:25:15.997Z,10.00
2023-04-03T23:27:42.578Z,10.20
2023-04-03T23:30:09.351Z,10.50
2023-04-03T23:32:36.104Z,8.00
2023-04-03T23:35:03.130Z,9.00
2023-04-03T23:37:29.620Z,10.40
2023-04-03T23:39:56.103Z,8.00
2023-04-03T23:42:22.742Z,12.00
2023-04-03T23:44:49.288Z,12.00
2023-04-03T23:47:15.914Z,10.40
2023-04-03T23:49:42.340Z,9.60
2023-04-03T23:52:08.850Z,9.40
2023-04-03T23:54:35.526Z,10.40
2023-04-03T23:57:02.053Z,11.00
2023-04-03T23:59:30.823Z,9.60
